Terminal Aerodrome Forecast
Issued by NWS Omaha/Valley, NE

Home | Current Version | Previous Version | Graphics & Text | Print | Product List | Glossary Off
Versions: 1 2 3 4 5 6 7 8 9 10 11 12 13 14 15 16 17 18 19 20 21 22 23 24 25 26 27 28 29 30 31 32

000
FTUS43 KOAX 292320
TAFOFK
TAF
KOFK 292320Z 3000/3024 34020G28KT P6SM VCSH OVC012
      TEMPO 3000/3002 5SM -SHRA
     FM300500 34015G21KT P6SM OVC025
     FM301300 34013KT P6SM SCT100
     FM301700 36013KT P6SM SKC=

USA.gov is the U.S. government's official web portal to all federal, state and local government web resources and services.